createdAt,value
2022-09-16T00:01:19.084Z,21.17
2022-09-16T00:03:47.813Z,21.22
2022-09-16T00:06:22.017Z,21.17
2022-09-16T00:08:50.958Z,21.14
2022-09-16T00:11:19.175Z,21.06
2022-09-16T00:13:47.100Z,21.05
2022-09-16T00:16:26.343Z,21.08
2022-09-16T00:19:00.732Z,21.08
2022-09-16T00:21:29.661Z,21.05
2022-09-16T00:23:57.632Z,20.99
2022-09-16T00:26:25.971Z,20.94
2022-09-16T00:28:53.371Z,20.94
2022-09-16T00:31:21.040Z,20.86
2022-09-16T00:33:48.269Z,20.78
2022-09-16T00:36:19.731Z,20.74
2022-09-16T00:38:57.616Z,20.72
2022-09-16T00:41:33.430Z,20.69
2022-09-16T00:44:04.740Z,20.62
2022-09-16T00:46:40.892Z,20.62
2022-09-16T00:49:29.398Z,20.65
2022-09-16T00:52:03.603Z,20.62
2022-09-16T00:54:34.104Z,20.61
2022-09-16T00:57:02.826Z,20.63
2022-09-16T00:59:39.194Z,20.64
2022-09-16T01:02:16.242Z,20.64
2022-09-16T01:05:04.271Z,20.66
2022-09-16T01:07:46.483Z,20.56
2022-09-16T01:10:18.962Z,20.51
2022-09-16T01:12:59.355Z,20.51
2022-09-16T01:16:10.411Z,20.52
2022-09-16T01:18:49.087Z,20.48
2022-09-16T01:21:43.194Z,20.42
2022-09-16T01:24:34.930Z,20.41
2022-09-16T01:27:26.329Z,20.40
2022-09-16T01:30:32.646Z,20.25
2022-09-16T01:33:42.377Z,20.24
2022-09-16T01:36:59.587Z,20.20
2022-09-16T01:39:32.990Z,20.17
2022-09-16T01:42:28.957Z,20.20
2022-09-16T01:45:30.985Z,20.14
2022-09-16T01:48:17.872Z,20.04
2022-09-16T01:51:06.222Z,19.94
2022-09-16T01:53:48.339Z,19.95
2022-09-16T01:56:37.588Z,19.98
2022-09-16T01:59:25.375Z,19.96
2022-09-16T02:02:11.852Z,19.94
2022-09-16T02:05:04.845Z,19.99
2022-09-16T02:07:39.632Z,20.02
2022-09-16T02:10:24.296Z,20.02
2022-09-16T02:12:57.496Z,19.95
2022-09-16T02:15:31.056Z,19.92
2022-09-16T02:18:11.241Z,19.91
2022-09-16T02:20:45.388Z,19.86
2022-09-16T02:23:24.009Z,19.86
2022-09-16T02:25:52.860Z,19.81
2022-09-16T02:28:31.267Z,19.75
2022-09-16T02:31:04.679Z,19.80
2022-09-16T02:34:21.744Z,19.79
2022-09-16T02:37:00.116Z,19.74
2022-09-16T02:39:35.016Z,19.68
2022-09-16T02:42:03.047Z,19.59
2022-09-16T02:44:31.356Z,19.61
2022-09-16T02:47:12.853Z,19.63
2022-09-16T02:50:20.195Z,19.60
2022-09-16T02:53:58.514Z,19.57
2022-09-16T02:56:37.550Z,19.64
2022-09-16T02:59:08.332Z,19.60
2022-09-16T03:01:44.438Z,19.60
2022-09-16T03:04:16.424Z,19.62
2022-09-16T03:06:44.686Z,19.61
2022-09-16T03:09:24.040Z,19.62
2022-09-16T03:12:17.149Z,19.61
2022-09-16T03:15:12.210Z,19.63
2022-09-16T03:18:16.682Z,19.55
2022-09-16T03:21:50.586Z,19.39
2022-09-16T03:24:45.592Z,19.23
2022-09-16T03:27:30.127Z,19.12
2022-09-16T03:30:08.465Z,19.12
2022-09-16T03:33:00.233Z,19.13
2022-09-16T03:35:39.171Z,19.16
2022-09-16T03:38:08.300Z,19.15
2022-09-16T03:40:37.285Z,19.10
2022-09-16T03:43:13.731Z,19.13
2022-09-16T03:45:42.705Z,19.14
2022-09-16T03:48:13.265Z,19.11
2022-09-16T03:50:41.232Z,19.07
2022-09-16T03:53:08.904Z,19.05
2022-09-16T03:55:36.260Z,19.02
2022-09-16T03:58:03.850Z,19.01
2022-09-16T04:00:31.442Z,18.96
2022-09-16T04:03:00.377Z,18.94
2022-09-16T04:05:27.985Z,18.85
2022-09-16T04:07:55.194Z,18.74
2022-09-16T04:10:22.717Z,18.67
2022-09-16T04:12:50.047Z,18.64
2022-09-16T04:15:17.361Z,18.61
2022-09-16T04:17:44.744Z,18.49
2022-09-16T04:20:11.913Z,18.46
2022-09-16T04:22:39.516Z,18.48
2022-09-16T04:25:10.470Z,18.42
2022-09-16T04:27:38.128Z,18.41
2022-09-16T04:30:06.164Z,18.44
2022-09-16T04:32:33.329Z,18.38
2022-09-16T04:35:00.553Z,18.44
2022-09-16T04:37:31.633Z,18.46
2022-09-16T04:40:03.802Z,18.46
2022-09-16T04:42:31.858Z,18.48
2022-09-16T04:45:00.693Z,18.44
2022-09-16T04:47:28.997Z,18.41
2022-09-16T04:49:56.426Z,18.40
2022-09-16T04:52:23.791Z,18.44
2022-09-16T04:54:51.131Z,18.43
2022-09-16T04:57:18.388Z,18.40
2022-09-16T04:59:45.925Z,18.38
2022-09-16T05:02:13.137Z,18.39
2022-09-16T05:04:40.404Z,18.43
2022-09-16T05:07:08.125Z,18.40
2022-09-16T05:09:37.535Z,18.37
2022-09-16T05:12:05.406Z,18.41
2022-09-16T05:14:32.802Z,18.40
2022-09-16T05:17:00.237Z,18.39
2022-09-16T05:19:27.563Z,18.37
2022-09-16T05:21:54.945Z,18.40
2022-09-16T05:24:22.262Z,18.39
2022-09-16T05:26:49.617Z,18.43
2022-09-16T05:29:17.554Z,18.42
2022-09-16T05:31:47.555Z,18.42
2022-09-16T05:34:23.216Z,18.48
2022-09-16T05:36:53.998Z,18.53
2022-09-16T05:39:24.582Z,18.56
2022-09-16T05:42:00.237Z,18.61
2022-09-16T05:44:28.899Z,18.59
2022-09-16T05:46:57.419Z,18.58
2022-09-16T05:49:25.649Z,18.58
2022-09-16T05:51:53.384Z,18.64
2022-09-16T05:54:26.121Z,18.73
2022-09-16T05:56:54.565Z,18.79
2022-09-16T05:59:23.959Z,18.82
2022-09-16T06:01:52.610Z,18.82
2022-09-16T06:04:20.350Z,18.83
2022-09-16T06:06:47.984Z,18.85
2022-09-16T06:09:22.360Z,18.94
2022-09-16T06:11:56.635Z,19.00
2022-09-16T06:14:25.625Z,19.10
2022-09-16T06:16:52.902Z,19.21
2022-09-16T06:19:20.411Z,19.41
2022-09-16T06:21:48.395Z,19.61
2022-09-16T06:24:17.926Z,19.73
2022-09-16T06:26:47.073Z,19.84
2022-09-16T06:29:16.739Z,19.91
2022-09-16T06:31:44.093Z,19.98
2022-09-16T06:34:18.535Z,20.07
2022-09-16T06:36:47.661Z,20.13
2022-09-16T06:39:17.001Z,20.21
2022-09-16T06:41:44.853Z,20.24
2022-09-16T06:44:12.236Z,20.29
2022-09-16T06:46:39.754Z,20.37
2022-09-16T06:49:07.269Z,20.45
2022-09-16T06:51:36.104Z,20.54
2022-09-16T06:54:07.648Z,20.65
2022-09-16T06:56:39.698Z,20.80
2022-09-16T06:59:08.197Z,20.89
2022-09-16T07:01:36.732Z,21.01
2022-09-16T07:04:11.090Z,21.02
2022-09-16T07:07:07.618Z,20.87
2022-09-16T07:09:26.326Z,20.96
2022-09-16T07:11:53.550Z,21.02
2022-09-16T07:14:21.568Z,20.96
2022-09-16T07:16:49.013Z,20.97
2022-09-16T07:19:16.340Z,21.13
2022-09-16T07:21:43.732Z,21.33
2022-09-16T07:24:14.113Z,21.51
2022-09-16T07:26:43.341Z,21.62
2022-09-16T07:29:17.503Z,21.76
2022-09-16T07:31:44.709Z,21.73
2022-09-16T07:34:13.712Z,21.78
2022-09-16T07:36:48.202Z,21.86
2022-09-16T07:39:19.289Z,22.16
2022-09-16T07:41:48.510Z,22.02
2022-09-16T07:44:19.120Z,21.92
2022-09-16T07:46:48.059Z,21.91
2022-09-16T07:49:17.022Z,21.95
2022-09-16T07:51:45.257Z,22.02
2022-09-16T07:54:17.720Z,22.11
2022-09-16T07:56:45.414Z,22.08
2022-09-16T07:59:19.293Z,22.14
2022-09-16T08:01:49.927Z,22.09
2022-09-16T08:04:19.716Z,22.20
2022-09-16T08:06:47.844Z,22.05
2022-09-16T08:12:05.763Z,22.29
2022-09-16T08:14:33.538Z,22.40
2022-09-16T08:17:01.894Z,22.55
2022-09-16T08:19:29.565Z,22.61
2022-09-16T08:21:56.956Z,22.63
2022-09-16T08:24:24.331Z,22.67
2022-09-16T08:26:51.713Z,22.94
2022-09-16T08:29:18.998Z,23.10
2022-09-16T08:31:46.196Z,23.33
2022-09-16T08:34:13.573Z,23.59
2022-09-16T08:36:41.011Z,23.64
2022-09-16T08:39:10.117Z,23.91
2022-09-16T08:41:52.404Z,24.16
2022-09-16T08:44:42.367Z,23.93
2022-09-16T08:47:42.848Z,23.90
2022-09-16T08:50:36.726Z,24.14
2022-09-16T08:53:25.276Z,24.14
2022-09-16T08:55:53.182Z,23.93
2022-09-16T08:58:27.195Z,23.90
2022-09-16T09:01:06.653Z,24.18
2022-09-16T09:03:45.954Z,24.17
2022-09-16T09:06:55.674Z,24.31
2022-09-16T09:10:24.873Z,24.29
2022-09-16T09:13:37.292Z,24.70
2022-09-16T09:16:10.260Z,24.68
2022-09-16T09:19:02.631Z,24.61
2022-09-16T09:22:06.350Z,24.45
2022-09-16T09:26:00.609Z,24.41
2022-09-16T09:29:14.995Z,24.00
2022-09-16T09:32:22.086Z,24.59
2022-09-16T09:35:50.075Z,24.83
2022-09-16T09:39:01.465Z,25.34
2022-09-16T09:41:56.809Z,25.87
2022-09-16T09:44:50.860Z,25.47
2022-09-16T09:47:47.144Z,25.01
2022-09-16T09:50:42.802Z,24.67
2022-09-16T09:53:33.707Z,24.51
2022-09-16T09:56:29.125Z,24.95
2022-09-16T09:59:39.412Z,25.28
2022-09-16T10:02:21.425Z,25.32
2022-09-16T10:04:49.608Z,25.30
2022-09-16T10:07:23.675Z,25.34
2022-09-16T10:10:04.285Z,25.22
2022-09-16T10:12:36.362Z,24.64
2022-09-16T10:15:06.027Z,24.49
2022-09-16T10:17:33.844Z,24.39
2022-09-16T10:20:19.685Z,24.64
2022-09-16T10:23:04.130Z,25.09
2022-09-16T10:25:33.421Z,25.31
2022-09-16T10:28:06.165Z,25.51
2022-09-16T10:30:48.748Z,25.87
2022-09-16T10:33:45.708Z,26.00
2022-09-16T10:36:22.705Z,26.35
2022-09-16T10:39:02.293Z,26.47
2022-09-16T10:41:46.364Z,26.26
2022-09-16T10:44:29.931Z,25.95
2022-09-16T10:47:16.537Z,26.05
2022-09-16T10:49:58.410Z,25.72
2022-09-16T10:52:30.189Z,25.65
2022-09-16T10:54:57.704Z,26.07
2022-09-16T10:57:34.183Z,26.76
2022-09-16T11:00:21.289Z,27.42
2022-09-16T11:03:41.948Z,27.74
2022-09-16T11:07:09.711Z,26.97
2022-09-16T11:10:11.298Z,27.83
2022-09-16T11:13:11.993Z,28.28
2022-09-16T11:16:51.184Z,29.40
2022-09-16T11:19:26.819Z,30.05
2022-09-16T11:22:41.258Z,29.96
2022-09-16T11:25:51.601Z,29.61
2022-09-16T11:28:59.131Z,27.78
2022-09-16T11:32:10.892Z,26.54
2022-09-16T11:35:14.051Z,26.32
2022-09-16T11:38:08.100Z,26.60
2022-09-16T11:40:58.090Z,27.04
2022-09-16T11:44:12.636Z,27.09
2022-09-16T11:47:27.302Z,27.69
2022-09-16T11:50:50.650Z,27.81
2022-09-16T11:54:04.356Z,27.65
2022-09-16T11:56:53.596Z,28.04
2022-09-16T11:59:47.847Z,28.03
2022-09-16T12:02:26.508Z,27.91
2022-09-16T12:05:49.649Z,27.63
2022-09-16T12:08:37.861Z,26.97
2022-09-16T12:11:27.255Z,27.44
2022-09-16T12:14:25.768Z,26.95
2022-09-16T12:17:09.178Z,27.33
2022-09-16T12:20:16.802Z,27.79
2022-09-16T12:22:54.298Z,27.86
2022-09-16T12:26:09.469Z,27.82
2022-09-16T12:28:55.099Z,27.93
2022-09-16T12:31:45.063Z,27.98
2022-09-16T12:34:22.220Z,28.16
2022-09-16T12:37:24.992Z,28.32
2022-09-16T12:39:53.066Z,28.06
2022-09-16T12:43:14.430Z,28.09
2022-09-16T12:46:09.637Z,28.10
2022-09-16T12:49:38.633Z,28.32
2022-09-16T12:52:23.678Z,28.47
2022-09-16T12:55:38.026Z,28.42
2022-09-16T12:58:39.097Z,28.82
2022-09-16T13:01:33.447Z,28.70
2022-09-16T13:04:17.110Z,28.45
2022-09-16T13:07:02.689Z,28.28
2022-09-16T13:09:38.852Z,28.68
2022-09-16T13:12:38.031Z,29.00
2022-09-16T13:15:08.018Z,29.00
2022-09-16T13:17:39.865Z,29.45
2022-09-16T13:20:21.184Z,29.62
2022-09-16T13:23:25.038Z,30.02
2022-09-16T13:26:02.397Z,29.71
2022-09-16T13:28:32.628Z,28.98
2022-09-16T13:31:12.328Z,28.83
2022-09-16T13:33:57.817Z,28.94
2022-09-16T13:36:25.378Z,29.37
2022-09-16T13:39:06.917Z,30.01
2022-09-16T13:41:47.583Z,30.56
2022-09-16T13:44:39.732Z,31.02
2022-09-16T13:47:10.064Z,31.92
2022-09-16T13:49:59.597Z,32.51
2022-09-16T13:52:35.386Z,34.44
2022-09-16T13:55:17.955Z,35.54
2022-09-16T13:58:17.119Z,36.16
2022-09-16T14:01:07.752Z,34.42
2022-09-16T14:04:31.665Z,35.25
2022-09-16T14:07:40.101Z,32.78
2022-09-16T14:10:51.355Z,33.42
2022-09-16T14:13:24.248Z,32.30
2022-09-16T14:15:59.131Z,32.60
2022-09-16T14:18:33.172Z,31.16
2022-09-16T14:21:01.894Z,32.42
2022-09-16T14:23:32.508Z,33.42
2022-09-16T14:26:21.594Z,34.54
2022-09-16T14:28:49.813Z,33.82
2022-09-16T14:31:26.289Z,32.28
2022-09-16T14:34:07.556Z,32.65
2022-09-16T14:36:40.590Z,32.75
2022-09-16T14:39:07.867Z,32.08
2022-09-16T14:41:49.223Z,30.66
2022-09-16T14:44:19.404Z,30.23
2022-09-16T14:47:09.476Z,30.26
2022-09-16T14:49:38.662Z,30.55
2022-09-16T14:52:27.158Z,30.58
2022-09-16T14:54:58.152Z,29.86
2022-09-16T14:57:30.053Z,30.17
2022-09-16T15:00:10.386Z,29.90
2022-09-16T15:03:12.532Z,30.01
2022-09-16T15:05:45.600Z,30.31
2022-09-16T15:08:47.656Z,30.58
2022-09-16T15:14:14.879Z,31.17
2022-09-16T15:16:50.679Z,31.29
2022-09-16T15:19:29.411Z,30.57
2022-09-16T15:22:00.037Z,30.08
2022-09-16T15:24:33.248Z,30.35
2022-09-16T15:27:02.519Z,30.58
2022-09-16T15:29:35.379Z,29.87
2022-09-16T15:32:23.272Z,30.13
2022-09-16T15:35:25.222Z,29.28
2022-09-16T15:37:55.754Z,29.05
2022-09-16T15:40:25.983Z,29.36
2022-09-16T15:43:45.446Z,29.20
2022-09-16T15:46:21.953Z,29.26
2022-09-16T15:49:00.494Z,29.31
2022-09-16T15:51:47.899Z,29.44
2022-09-16T15:54:31.158Z,29.13
2022-09-16T15:57:04.053Z,28.90
2022-09-16T15:59:47.212Z,28.81
2022-09-16T16:02:41.316Z,28.85
2022-09-16T16:05:14.170Z,28.71
2022-09-16T16:07:46.859Z,28.67
2022-09-16T16:10:40.235Z,28.56
2022-09-16T16:13:07.605Z,28.49
2022-09-16T16:15:38.868Z,28.56
2022-09-16T16:18:09.466Z,28.75
2022-09-16T16:20:38.114Z,29.02
2022-09-16T16:23:05.407Z,30.48
2022-09-16T16:25:32.723Z,30.35
2022-09-16T16:27:59.963Z,30.58
2022-09-16T16:30:27.391Z,30.54
2022-09-16T16:32:54.660Z,29.46
2022-09-16T16:35:21.912Z,28.83
2022-09-16T16:37:49.329Z,28.39
2022-09-16T16:40:16.881Z,28.15
2022-09-16T16:42:44.780Z,28.05
2022-09-16T16:45:15.141Z,27.95
2022-09-16T16:47:44.039Z,27.86
2022-09-16T16:50:11.729Z,27.78
2022-09-16T16:52:39.221Z,27.69
2022-09-16T16:55:07.355Z,27.60
2022-09-16T16:57:34.625Z,27.53
2022-09-16T17:00:03.012Z,27.44
2022-09-16T17:02:30.306Z,27.37
2022-09-16T17:04:58.259Z,27.35
2022-09-16T17:07:27.366Z,27.29
2022-09-16T17:09:59.415Z,27.26
2022-09-16T17:12:27.441Z,27.19
2022-09-16T17:14:54.923Z,27.09
2022-09-16T17:17:25.244Z,27.05
2022-09-16T17:19:54.935Z,26.96
2022-09-16T17:22:22.341Z,26.85
2022-09-16T17:24:49.955Z,26.82
2022-09-16T17:27:20.574Z,26.75
2022-09-16T17:29:48.153Z,26.69
2022-09-16T17:32:16.121Z,26.70
2022-09-16T17:34:43.507Z,26.65
2022-09-16T17:37:10.736Z,26.60
2022-09-16T17:39:38.273Z,26.55
2022-09-16T17:42:08.640Z,26.54
2022-09-16T17:44:35.904Z,26.49
2022-09-16T17:47:06.722Z,26.41
2022-09-16T17:49:34.026Z,26.33
2022-09-16T17:52:01.615Z,26.29
2022-09-16T17:54:29.350Z,26.18
2022-09-16T17:56:56.605Z,26.10
2022-09-16T17:59:25.167Z,26.16
2022-09-16T18:01:52.706Z,26.13
2022-09-16T18:04:20.021Z,26.21
2022-09-16T18:06:47.771Z,26.28
2022-09-16T18:09:16.530Z,26.24
2022-09-16T18:11:44.872Z,26.21
2022-09-16T18:14:13.947Z,26.09
2022-09-16T18:16:42.489Z,26.29
2022-09-16T18:19:13.847Z,26.29
2022-09-16T18:21:42.095Z,26.10
2022-09-16T18:24:13.099Z,26.00
2022-09-16T18:26:42.221Z,25.88
2022-09-16T18:29:13.022Z,25.84
2022-09-16T18:31:48.070Z,25.67
2022-09-16T18:34:17.732Z,25.61
2022-09-16T18:36:45.351Z,25.55
2022-09-16T18:39:17.370Z,25.48
2022-09-16T18:41:46.349Z,25.33
2022-09-16T18:44:19.923Z,25.32
2022-09-16T18:46:48.108Z,25.31
2022-09-16T18:49:17.939Z,25.38
2022-09-16T18:51:52.331Z,25.21
2022-09-16T18:54:30.379Z,25.07
2022-09-16T18:57:03.040Z,24.95
2022-09-16T18:59:34.121Z,24.89
2022-09-16T19:02:04.215Z,24.87
2022-09-16T19:04:38.062Z,24.88
2022-09-16T19:07:08.079Z,24.88
2022-09-16T19:09:41.514Z,24.98
2022-09-16T19:12:13.235Z,24.93
2022-09-16T19:14:41.235Z,24.88
2022-09-16T19:17:09.582Z,24.84
2022-09-16T19:19:36.889Z,24.83
2022-09-16T19:22:06.035Z,24.72
2022-09-16T19:24:34.408Z,24.70
2022-09-16T19:27:01.850Z,24.61
2022-09-16T19:29:29.287Z,24.56
2022-09-16T19:31:57.284Z,24.49
2022-09-16T19:34:24.535Z,24.50
2022-09-16T19:36:51.872Z,24.45
2022-09-16T19:39:21.096Z,24.27
2022-09-16T19:41:48.598Z,24.22
2022-09-16T19:44:17.847Z,24.14
2022-09-16T19:46:48.893Z,24.25
2022-09-16T19:49:22.688Z,24.10
2022-09-16T19:51:52.792Z,24.14
2022-09-16T19:54:21.038Z,24.13
2022-09-16T19:56:50.634Z,24.11
2022-09-16T19:59:19.839Z,24.15
2022-09-16T20:01:48.354Z,24.10
2022-09-16T20:04:19.541Z,23.97
2022-09-16T20:06:47.966Z,23.83
2022-09-16T20:09:16.846Z,23.73
2022-09-16T20:11:47.260Z,23.65
2022-09-16T20:14:20.268Z,23.55
2022-09-16T20:16:50.345Z,23.41
2022-09-16T20:19:20.193Z,23.40
2022-09-16T20:21:48.258Z,23.32
2022-09-16T20:24:20.736Z,23.40
2022-09-16T20:26:51.528Z,23.51
2022-09-16T20:29:20.653Z,23.39
2022-09-16T20:31:52.430Z,23.37
2022-09-16T20:34:22.912Z,23.55
2022-09-16T20:36:50.810Z,23.58
2022-09-16T20:39:18.289Z,23.36
2022-09-16T20:41:49.645Z,23.13
2022-09-16T20:44:17.173Z,22.90
2022-09-16T20:46:44.715Z,22.90
2022-09-16T20:49:17.247Z,22.84
2022-09-16T20:51:45.952Z,22.67
2022-09-16T20:54:15.606Z,22.54
2022-09-16T20:56:46.879Z,22.73
2022-09-16T20:59:18.071Z,22.90
2022-09-16T21:01:46.852Z,23.01
2022-09-16T21:04:18.774Z,22.94
2022-09-16T21:06:46.772Z,23.02
2022-09-16T21:09:16.109Z,22.92
2022-09-16T21:11:46.464Z,22.90
2022-09-16T21:14:16.735Z,22.66
2022-09-16T21:16:47.045Z,22.51
2022-09-16T21:19:16.114Z,22.22
2022-09-16T21:21:46.474Z,21.99
2022-09-16T21:24:14.173Z,22.11
2022-09-16T21:26:44.023Z,22.27
2022-09-16T21:29:17.678Z,22.56
2022-09-16T21:31:45.135Z,22.48
2022-09-16T21:34:21.375Z,22.49
2022-09-16T21:36:51.044Z,22.43
2022-09-16T21:39:21.766Z,22.36
2022-09-16T21:41:49.735Z,22.25
2022-09-16T21:44:17.984Z,22.23
2022-09-16T21:46:46.631Z,22.19
2022-09-16T21:49:24.329Z,22.24
2022-09-16T21:51:55.587Z,22.42
2022-09-16T21:54:24.568Z,22.37
2022-09-16T21:56:53.331Z,22.25
2022-09-16T21:59:21.571Z,22.31
2022-09-16T22:01:51.100Z,22.37
2022-09-16T22:04:23.262Z,22.46
2022-09-16T22:06:54.706Z,22.44
2022-09-16T22:09:22.892Z,22.44
2022-09-16T22:11:51.504Z,22.42
2022-09-16T22:14:19.662Z,22.45
2022-09-16T22:16:47.080Z,22.44
2022-09-16T22:19:18.559Z,22.47
2022-09-16T22:21:50.695Z,22.38
2022-09-16T22:24:20.646Z,22.36
2022-09-16T22:26:51.986Z,22.25
2022-09-16T22:29:19.588Z,22.14
2022-09-16T22:31:47.001Z,22.04
2022-09-16T22:34:14.715Z,21.86
2022-09-16T22:36:42.078Z,21.77
2022-09-16T22:39:16.108Z,21.72
2022-09-16T22:41:44.075Z,21.68
2022-09-16T22:44:12.641Z,21.61
2022-09-16T22:46:47.419Z,21.55
2022-09-16T22:49:15.696Z,21.50
2022-09-16T22:51:43.215Z,21.43
2022-09-16T22:54:13.300Z,21.43
2022-09-16T22:56:41.285Z,21.43
2022-09-16T22:59:18.994Z,21.34
2022-09-16T23:01:47.476Z,21.30
2022-09-16T23:04:15.119Z,21.33
2022-09-16T23:06:42.597Z,21.38
2022-09-16T23:09:12.950Z,21.38
2022-09-16T23:11:40.361Z,21.36
2022-09-16T23:14:10.692Z,21.30
2022-09-16T23:16:38.486Z,21.30
2022-09-16T23:19:10.413Z,21.32
2022-09-16T23:21:39.626Z,21.30
2022-09-16T23:24:13.774Z,21.26
2022-09-16T23:26:42.118Z,21.15
2022-09-16T23:29:12.796Z,20.97
2022-09-16T23:31:44.061Z,20.73
2022-09-16T23:34:21.788Z,20.63
2022-09-16T23:36:52.102Z,20.66
2022-09-16T23:39:19.788Z,20.74
2022-09-16T23:41:48.706Z,20.72
2022-09-16T23:44:16.649Z,20.69
2022-09-16T23:46:44.851Z,20.73
2022-09-16T23:49:13.033Z,20.72
2022-09-16T23:51:40.253Z,20.70
2022-09-16T23:54:07.708Z,20.68
2022-09-16T23:56:35.022Z,20.65
2022-09-16T23:59:02.426Z,20.68
